Latest Weather Observations for Sydney - Observatory Hill

IDN60801

Issued at 11:02 am EST Monday 24 April 2017 (issued every 30 minutes, with the page automatically refreshed every 10 minutes)

About weather observations | Map of weather stations | Latest weather observations for NSW | Other Formats
Station Details ID: 066062 Name: SYDNEY (OBSERVATORY HILL) Lat: -33.86 Lon: 151.21 Height: 39.0 m
Data from the previous 72 hours. | See also: Recent months at Sydney - Observatory Hill

* Apparent temperature (App Temp) for Sydney - Observatory Hill is calculated using temperature observations collected at Sydney - Observatory Hill and wind observations collected at Fort Denison, as wind observations are not currently provided for Sydney - Observatory Hill.

Date/Time
EST
Temp
°C
App
Temp
°C
Dew
Point
°C
Rel
Hum
%
Delta-T
°C
Wind Press
QNH
hPa
Press
MSL
hPa
Rain since
9am
mm
Dir  Spd
km/h
Gust
km/h
Spd
kts
Gust
kts
24/11:00am 21.4 21.5 13.8 62 4.4 W 6 - 3 - 1021.9 1021.8 0.0
24/10:30am 20.4 20.4 14.3 68 3.5 WNW 7 - 4 - 1022.2 1022.1 0.0
24/10:00am 19.7 18.9 14.1 70 3.2 WNW 11 - 6 - 1022.5 1022.4 0.0
24/09:30am 18.7 17.8 13.8 73 2.8 WNW 11 - 6 - 1022.7 1022.6 0.0
24/09:00am 18.2 16.5 13.5 74 2.7 W 15 - 8 - 1022.8 1022.7 0.0
24/08:30am 18.5 17.4 13.1 71 3.0 WNW 11 - 6 - 1022.9 1022.8 0.0
24/08:00am 17.8 16.1 13.5 76 2.4 W 15 - 8 - 1022.9 1022.8 0.0
24/07:30am 16.6 14.9 13.7 83 1.6 W 15 - 8 - 1022.7 1022.6 0.0
24/07:00am 15.9 13.5 13.7 87 1.2 W 19 - 10 - 1022.3 1022.2 0.0
24/06:30am 15.9 14.6 13.7 87 1.2 W 13 - 7 - 1022.1 1022.0 0.0
24/06:00am 16.0 15.1 13.8 87 1.2 WNW 11 - 6 - 1022.0 1021.9 0.0
24/05:30am 16.1 14.8 13.8 86 1.3 WNW 13 - 7 - 1021.9 1021.8 0.0
24/05:00am 16.2 15.3 13.7 85 1.4 WNW 11 - 6 - 1021.6 1021.5 0.0
24/04:30am 16.4 15.6 14.1 86 1.3 WNW 11 - 6 - 1021.6 1021.5 0.0
24/04:00am 16.6 15.5 14.2 86 1.4 WNW 13 - 7 - 1021.4 1021.3 0.0
24/03:30am 16.9 16.3 14.5 86 1.4 W 11 - 6 - 1021.4 1021.3 0.0
24/03:00am 16.9 15.9 14.5 86 1.4 WNW 13 - 7 - 1021.7 1021.6 0.0
24/02:30am 16.9 15.8 14.4 85 1.4 WNW 13 - 7 - 1021.9 1021.8 0.0
24/02:00am 17.1 16.1 14.6 85 1.4 WNW 13 - 7 - 1022.3 1022.2 0.0
24/01:30am 17.5 16.7 15.0 85 1.5 WNW 13 - 7 - 1022.4 1022.3 0.0
24/01:00am 17.7 16.9 15.0 84 1.6 WNW 13 - 7 - 1022.6 1022.5 0.0
24/12:30am 17.9 17.1 15.0 83 1.7 W 13 - 7 - 1022.8 1022.7 0.0
24/12:00am 18.0 16.7 14.9 82 1.8 W 15 - 8 - 1022.9 1022.8 0.0
 
Date/Time
EST
Temp
°C
App
Temp
°C
Dew
Point
°C
Rel
Hum
%
Delta-T
°C
Wind Press
QNH
hPa
Press
MSL
hPa
Rain since
9am
mm
Dir  Spd
km/h
Gust
km/h
Spd
kts
Gust
kts
23/11:30pm 18.3 17.9 15.2 82 1.8 WNW 11 - 6 - 1023.1 1023.0 0.0
23/11:00pm 18.5 18.1 15.2 81 1.9 W 11 - 6 - 1023.3 1023.2 0.0
23/10:30pm 19.1 18.9 15.8 81 2.0 W 11 - 6 - 1023.3 1023.2 0.0
23/10:00pm 19.6 19.5 16.1 80 2.1 W 11 - 6 - 1023.4 1023.3 0.0
23/09:30pm 20.0 21.5 15.8 77 2.5 W 2 - 1 - 1023.5 1023.4 0.0
23/09:00pm 20.3 22.1 15.5 74 2.8 CALM 0 - 0 - 1023.5 1023.4 0.0
23/08:30pm 20.8 22.3 15.6 72 3.1 NW 2 - 1 - 1023.2 1023.1 0.0
23/08:00pm 20.9 21.5 15.4 71 3.3 ESE 6 - 3 - 1023.0 1022.9 0.0
23/07:30pm 20.9 21.3 15.4 71 3.3 ESE 7 - 4 - 1022.8 1022.7 0.0
23/07:00pm 20.8 21.5 15.6 72 3.1 SE 6 - 3 - 1022.6 1022.5 0.0
23/06:30pm 20.8 21.2 15.4 71 3.2 SE 7 - 4 - 1022.4 1022.3 0.0
23/06:00pm 21.0 21.3 15.1 69 3.5 SE 7 - 4 - 1021.9 1021.8 0.0
23/05:30pm 21.4 21.3 15.0 67 3.8 SE 9 - 5 - 1021.7 1021.6 0.0
23/05:00pm 21.6 21.3 14.5 64 4.2 SE 9 - 5 - 1021.4 1021.3 0.0
23/04:30pm 22.2 20.9 14.8 63 4.4 ESE 15 - 8 - 1021.2 1021.1 0.0
23/04:00pm 23.1 22.6 14.9 60 4.9 ESE 11 - 6 - 1021.0 1020.9 0.0
23/03:30pm 23.0 21.8 15.1 61 4.7 E 15 - 8 - 1021.0 1020.9 0.0
23/03:00pm 23.6 22.0 14.9 58 5.2 ESE 17 - 9 - 1021.0 1020.9 0.0
23/02:30pm 24.2 22.6 14.9 56 5.6 E 17 - 9 - 1021.0 1020.9 0.0
23/02:00pm 24.8 22.0 12.7 47 7.0 E 19 - 10 - 1021.1 1021.0 0.0
23/01:30pm 25.5 25.5 12.4 44 7.6 NE 4 - 2 - 1021.1 1021.0 0.0
23/01:00pm 25.6 25.2 14.1 49 6.8 ENE 9 - 5 - 1021.4 1021.3 0.0
23/12:30pm 24.8 24.5 12.7 47 7.0 E 6 - 3 - 1021.9 1021.8 0.0
23/12:00pm 23.8 23.8 13.6 52 5.9 WSW 6 - 3 - 1022.3 1022.2 0.0
23/11:30am 22.8 22.5 14.4 59 4.9 W 9 - 5 - 1022.7 1022.6 0.0
23/11:00am 21.2 20.6 13.6 62 4.4 W 9 - 5 - 1023.3 1023.2 0.0
23/10:30am 20.3 19.3 13.5 65 3.9 W 11 - 6 - 1023.8 1023.7 0.0
23/10:00am 19.6 19.1 13.8 69 3.3 WNW 9 - 5 - 1023.9 1023.8 0.0
23/09:30am 19.0 18.1 13.8 72 3.0 WNW 11 - 6 - 1024.2 1024.1 0.0
23/09:00am 18.5 17.6 13.8 74 2.7 WNW 11 - 6 - 1024.2 1024.1 0.0
23/08:30am 18.4 17.7 13.1 71 3.0 WNW 9 - 5 - 1024.0 1023.9 0.0
23/08:00am 18.1 17.8 13.4 74 2.7 WNW 7 - 4 - 1023.9 1023.8 0.0
23/07:30am 17.0 15.9 14.3 84 1.5 W 13 - 7 - 1023.7 1023.6 0.0
23/07:00am 16.1 15.6 13.9 87 1.2 NW 9 - 5 - 1023.5 1023.4 0.0
23/06:30am 16.0 14.7 13.8 87 1.2 W 13 - 7 - 1023.3 1023.2 0.0
23/06:00am 16.2 15.0 14.0 87 1.2 W 13 - 7 - 1023.0 1022.9 0.0
23/05:30am 16.2 15.0 13.9 86 1.3 WNW 13 - 7 - 1022.7 1022.6 0.0
23/05:00am 16.5 15.0 14.2 86 1.3 W 15 - 8 - 1022.4 1022.3 0.0
23/04:30am 16.9 15.9 14.5 86 1.4 WSW 13 - 7 - 1022.4 1022.3 0.0
23/04:00am 17.1 15.7 14.6 85 1.4 W 15 - 8 - 1022.1 1022.0 0.0
23/03:30am 17.2 16.6 14.5 84 1.6 WNW 11 - 6 - 1022.2 1022.1 0.0
23/03:00am 17.3 17.5 14.6 84 1.6 WNW 7 - 4 - 1022.2 1022.1 0.0
23/02:30am 17.7 17.9 14.8 83 1.7 WNW 7 - 4 - 1022.5 1022.4 0.0
23/02:00am 17.9 17.7 14.8 82 1.8 W 9 - 5 - 1022.8 1022.7 0.0
23/01:30am 18.2 19.0 14.9 81 1.9 NNW 4 - 2 - 1023.0 1022.9 0.0
23/01:00am 18.3 19.0 14.6 79 2.1 N 4 - 2 - 1023.1 1023.0 0.0
23/12:30am 18.9 19.7 14.8 77 2.4 NW 4 - 2 - 1023.3 1023.2 0.0
23/12:00am 19.5 20.6 14.7 74 2.8 NNE 2 - 1 - 1023.4 1023.3 0.0
 
Date/Time
EST
Temp
°C
App
Temp
°C
Dew
Point
°C
Rel
Hum
%
Delta-T
°C
Wind Press
QNH
hPa
Press
MSL
hPa
Rain since
9am
mm
Dir  Spd
km/h
Gust
km/h
Spd
kts
Gust
kts
22/11:30pm 19.7 20.4 14.5 72 3.0 NE 4 - 2 - 1023.4 1023.3 0.0
22/11:00pm 19.9 20.5 14.3 70 3.2 ENE 4 - 2 - 1023.5 1023.4 0.0
22/10:30pm 20.2 20.4 14.3 69 3.4 ENE 6 - 3 - 1023.5 1023.4 0.0
22/10:00pm 20.3 20.9 14.2 68 3.5 ENE 4 - 2 - 1023.7 1023.6 0.0
22/09:30pm 20.5 21.1 14.2 67 3.7 ENE 4 - 2 - 1023.6 1023.5 0.0
22/09:00pm 20.4 21.2 13.8 66 3.8 S 2 - 1 - 1023.5 1023.4 0.0
22/08:30pm 20.9 22.1 13.8 64 4.1 CALM 0 - 0 - 1023.6 1023.5 0.0
22/08:00pm 21.0 21.5 13.9 64 4.1 NW 4 - 2 - 1023.5 1023.4 0.0
22/07:30pm 21.3 21.6 14.5 65 4.0 NNE 6 - 3 - 1023.4 1023.3 0.0
22/07:00pm 21.2 22.2 14.4 65 4.0 E 2 - 1 - 1023.3 1023.2 0.0
22/06:30pm 21.5 22.2 14.6 65 4.1 NE 4 - 2 - 1023.2 1023.1 0.0
22/06:00pm 21.6 21.3 14.3 63 4.3 NNE 9 - 5 - 1023.0 1022.9 0.0
22/05:30pm 21.7 21.4 14.4 63 4.3 NNE 9 - 5 - 1022.8 1022.7 0.0
22/05:00pm 21.8 21.5 14.4 63 4.3 NNE 9 - 5 - 1022.9 1022.8 0.0
22/04:30pm 22.0 21.8 14.6 63 4.4 NE 9 - 5 - 1022.7 1022.6 0.0
22/04:00pm 21.9 21.6 14.5 63 4.3 NE 9 - 5 - 1022.6 1022.5 0.0
22/03:30pm 22.4 21.9 14.8 62 4.5 NE 11 - 6 - 1022.3 1022.2 0.0
22/03:00pm 22.5 21.1 14.4 60 4.7 ENE 15 - 8 - 1022.3 1022.2 0.0
22/02:30pm 23.1 21.6 14.1 57 5.3 E 15 - 8 - 1022.5 1022.4 0.0
22/02:00pm 23.7 22.5 14.1 55 5.6 E 13 - 7 - 1022.7 1022.6 0.0
22/01:30pm 23.1 22.2 13.6 55 5.5 E 11 - 6 - 1022.9 1022.8 0.0
22/01:00pm 22.5 21.2 13.6 57 5.1 E 13 - 7 - 1023.3 1023.2 0.0
22/12:30pm 23.1 21.5 13.8 55 5.4 E 15 - 8 - 1023.7 1023.6 0.0
22/12:00pm 22.7 21.6 14.3 59 4.9 E 13 - 7 - 1024.3 1024.2 0.0
22/11:30am 21.9 21.4 13.8 60 4.7 ENE 9 - 5 - 1024.8 1024.7 0.0
22/11:00am 21.6 21.8 13.2 59 4.8 SE 4 - 2 - 1025.1 1025.0 0.0
22/10:30am 21.2 21.6 13.6 62 4.4 NE 4 - 2 - 1025.6 1025.5 0.0
22/10:00am 20.5 20.5 13.7 65 3.9 NNE 6 - 3 - 1025.7 1025.6 0.0
22/09:30am 20.1 20.5 13.6 66 3.7 N 4 - 2 - 1025.7 1025.6 0.0
22/09:00am 19.9 20.7 13.8 68 3.5 NNE 2 - 1 - 1026.0 1025.9 0.0
22/08:30am 19.6 19.9 13.5 68 3.5 ESE 4 - 2 - 1025.7 1025.6 0.0
22/08:00am 18.8 19.1 13.4 71 3.1 N 4 - 2 - 1025.8 1025.7 0.0
22/07:30am 18.6 19.1 13.9 74 2.7 NNE 4 - 2 - 1025.7 1025.6 0.0
22/07:00am 18.1 18.5 13.8 76 2.4 NNW 4 - 2 - 1025.3 1025.2 0.0
22/06:30am 17.9 18.3 13.6 76 2.4 WNW 4 - 2 - 1025.1 1025.0 0.0
22/06:00am 18.0 18.0 13.5 75 2.5 W 6 - 3 - 1024.9 1024.8 0.0
22/05:30am 18.3 18.2 13.8 75 2.6 W 7 - 4 - 1024.7 1024.6 0.0
22/05:00am 18.5 18.8 13.4 72 2.9 NW 4 - 2 - 1024.6 1024.5 0.0
22/04:30am 18.8 19.0 13.2 70 3.2 WNW 4 - 2 - 1024.5 1024.4 0.0
22/04:00am 19.2 19.1 13.2 68 3.4 N 6 - 3 - 1024.3 1024.2 0.0
22/03:30am 19.3 19.1 13.5 69 3.3 N 7 - 4 - 1024.4 1024.3 0.0
22/03:00am 18.6 18.7 13.9 74 2.7 NNW 6 - 3 - 1024.4 1024.3 0.0
22/02:30am 18.5 18.6 14.0 75 2.6 NNW 6 - 3 - 1024.5 1024.4 0.0
22/02:00am 18.8 18.4 14.1 74 2.7 NNW 9 - 5 - 1024.9 1024.8 0.0
22/01:30am 19.4 18.7 14.2 72 3.0 NNW 11 - 6 - 1025.1 1025.0 0.0
22/01:00am 20.0 18.8 13.9 68 3.5 N 13 - 7 - 1025.3 1025.2 0.0
22/12:30am 20.1 19.7 14.0 68 3.5 NNE 9 - 5 - 1025.3 1025.2 0.0
22/12:00am 20.2 20.2 14.3 69 3.4 NNE 7 - 4 - 1025.4 1025.3 0.0
 
Date/Time
EST
Temp
°C
App
Temp
°C
Dew
Point
°C
Rel
Hum
%
Delta-T
°C
Wind Press
QNH
hPa
Press
MSL
hPa
Rain since
9am
mm
Dir  Spd
km/h
Gust
km/h
Spd
kts
Gust
kts
21/11:30pm 20.3 20.1 14.7 70 3.3 NNE 9 - 5 - 1025.5 1025.4 0.0
21/11:00pm 20.3 20.1 14.7 70 3.3 NE 9 - 5 - 1025.3 1025.2 0.0
21/10:30pm 20.6 19.7 14.9 70 3.4 NE 13 - 7 - 1025.5 1025.4 0.0
21/10:00pm 20.6 20.1 14.9 70 3.3 NNE 11 - 6 - 1025.6 1025.5 0.0
21/09:30pm 20.8 20.8 15.1 70 3.4 NNE 9 - 5 - 1025.8 1025.7 0.0
21/09:00pm 21.0 20.7 15.5 71 3.3 NNE 11 - 6 - 1026.0 1025.9 0.0
21/08:30pm 21.1 20.0 16.3 74 2.9 ENE 17 - 9 - 1025.8 1025.7 0.0
21/08:00pm 21.0 19.3 15.8 72 3.1 ENE 19 - 10 - 1025.7 1025.6 0.0
21/07:30pm 21.1 19.2 15.2 69 3.5 ENE 19 - 10 - 1025.4 1025.3 0.0
21/07:00pm 21.5 20.4 14.4 64 4.1 ENE 13 - 7 - 1025.4 1025.3 0.0
21/06:30pm 21.5 20.8 14.2 63 4.3 NE 11 - 6 - 1025.3 1025.2 0.0
21/06:00pm 21.7 21.3 14.1 62 4.4 NE 9 - 5 - 1025.2 1025.1 0.0
21/05:30pm 21.7 20.5 13.9 61 4.5 ENE 13 - 7 - 1025.0 1024.9 0.0
21/05:00pm 21.8 20.6 13.9 61 4.6 ENE 13 - 7 - 1024.9 1024.8 0.0
21/04:30pm 21.7 20.4 13.6 60 4.7 ENE 13 - 7 - 1024.9 1024.8 0.0
21/04:00pm 21.9 20.6 13.8 60 4.7 ENE 13 - 7 - 1024.8 1024.7 0.0
21/03:30pm 22.0 20.0 13.9 60 4.7 ENE 17 - 9 - 1024.9 1024.8 0.0
21/03:00pm 22.4 20.3 13.7 58 5.0 E 17 - 9 - 1024.9 1024.8 0.0
21/02:30pm 22.5 20.6 14.1 59 4.9 E 17 - 9 - 1025.0 1024.9 0.0
21/02:00pm 22.8 21.1 14.6 60 4.8 E 17 - 9 - 1025.2 1025.1 0.0
21/01:30pm 22.3 19.9 13.9 59 4.9 E 19 - 10 - 1025.3 1025.2 0.0
21/01:00pm 23.4 21.0 13.8 54 5.6 E 19 - 10 - 1025.5 1025.4 0.0
21/12:30pm 23.0 21.9 13.2 54 5.7 E 11 - 6 - 1026.0 1025.9 0.0
21/12:00pm 22.8 22.5 12.7 53 5.8 ESE 6 - 3 - 1026.5 1026.4 0.0
21/11:30am 22.2 22.9 13.3 57 5.1 S 2 - 1 - 1027.2 1027.1 0.0

Other Formats:

Comma delimited format used in spreadsheet applications
http://www.bom.gov.au/fwo/IDN60801/IDN60801.94768.axf

JavaScript Object Notation format (JSON) in row-major order
http://www.bom.gov.au/fwo/IDN60801/IDN60801.94768.json